Time;durP1;ratioP1;P1;durP2;ratioP2;P2;SDS_P1;SDS_P2;PMS_P1;PMS_P2;Temp;Humidity;BMP_temperature;BMP_pressure;BME280_temperature;BME280_humidity;BME280_pressure;Samples;Min_cycle;Max_cycle;Signal;HPM_P1;HPM_P2
2022/10/29 00:01:14;;;;;;;11.15;4.15;;;15.80;86.60;;;;;;4897074;29;20509;-31
2022/10/29 00:03:40;;;;;;;9.55;3.80;;;15.80;86.50;;;;;;4896932;29;20028;-36
2022/10/29 00:06:09;;;;;;;9.15;3.97;;;15.80;86.60;;;;;;4897231;29;20084;-26
2022/10/29 00:08:36;;;;;;;9.30;3.97;;;15.80;86.60;;;;;;4897269;29;20028;-31
2022/10/29 00:11:14;;;;;;;9.73;4.05;;;15.80;86.60;;;;;;4896962;29;20029;-34
2022/10/29 00:13:40;;;;;;;8.05;3.65;;;15.70;86.50;;;;;;4897320;29;20041;-32
2022/10/29 00:16:08;;;;;;;10.50;4.10;;;15.70;86.50;;;;;;4897368;29;20127;-32
2022/10/29 00:18:34;;;;;;;10.10;3.80;;;15.70;86.60;;;;;;4897012;29;20035;-29
2022/10/29 00:21:05;;;;;;;10.52;3.38;;;15.60;86.60;;;;;;4897315;29;20032;-35
2022/10/29 00:23:31;;;;;;;9.82;4.15;;;15.60;86.60;;;;;;4896983;29;20028;-31
2022/10/29 00:25:57;;;;;;;7.93;3.45;;;15.60;86.60;;;;;;4897048;29;20072;-32
2022/10/29 00:28:23;;;;;;;7.93;3.22;;;15.50;86.60;;;;;;4897149;29;20361;-27
2022/10/29 00:30:49;;;;;;;13.43;3.60;;;15.50;86.60;;;;;;4896843;29;20017;-31
2022/10/29 00:33:17;;;;;;;9.18;3.28;;;15.50;86.80;;;;;;4897031;29;20067;-28
2022/10/29 00:35:53;;;;;;;10.27;3.20;;;15.40;86.80;;;;;;4897120;29;20029;-31
2022/10/29 00:38:18;;;;;;;10.98;3.22;;;15.40;86.80;;;;;;4897128;29;20130;-28
2022/10/29 00:40:44;;;;;;;12.57;3.42;;;15.30;86.80;;;;;;4896728;29;20071;-28
2022/10/29 00:43:18;;;;;;;10.95;3.40;;;15.30;87.00;;;;;;4896792;29;20052;-31
2022/10/29 00:45:49;;;;;;;10.82;3.40;;;15.30;87.10;;;;;;4901135;29;20051;-29
2022/10/29 00:48:15;;;;;;;10.95;3.42;;;15.30;87.20;;;;;;4900716;29;20048;-30
2022/10/29 00:50:41;;;;;;;9.55;3.03;;;15.20;87.20;;;;;;4900750;29;20033;-31
2022/10/29 00:53:07;;;;;;;8.98;3.13;;;15.20;87.20;;;;;;4900585;29;20028;-31
2022/10/29 00:55:32;;;;;;;8.68;3.13;;;15.20;87.30;;;;;;4900487;29;20465;-37
2022/10/29 00:57:59;;;;;;;7.82;3.28;;;15.20;87.30;;;;;;4900422;29;20099;-28
2022/10/29 01:00:25;;;;;;;8.15;3.28;;;15.20;87.30;;;;;;4900014;29;20127;-28
2022/10/29 01:02:51;;;;;;;8.40;3.50;;;15.20;87.40;;;;;;4900378;29;20470;-32
2022/10/29 01:05:22;;;;;;;13.48;3.65;;;15.10;87.40;;;;;;4900282;29;20060;-30
2022/10/29 01:07:48;;;;;;;9.95;3.47;;;15.10;87.40;;;;;;4900214;29;20037;-28
2022/10/29 01:10:15;;;;;;;11.65;3.50;;;15.20;87.30;;;;;;4900210;29;20028;-29
2022/10/29 01:13:26;;;;;;;8.90;3.63;;;15.20;87.80;;;;;;4900056;29;20033;-29
2022/10/29 01:16:03;;;;;;;8.95;3.47;;;15.20;87.20;;;;;;4860431;29;20030;-29
2022/10/29 01:18:37;;;;;;;9.07;3.85;;;15.10;87.20;;;;;;4897996;29;20033;-31
2022/10/29 01:21:28;;;;;;;8.23;3.38;;;15.10;87.30;;;;;;4900367;29;20024;-28
2022/10/29 01:24:37;;;;;;;8.60;3.40;;;15.00;87.20;;;;;;4900318;29;20076;-31
2022/10/29 01:27:26;;;;;;;8.52;3.63;;;15.00;87.20;;;;;;4900158;29;20033;-28
2022/10/29 01:30:00;;;;;;;9.75;3.50;;;15.00;87.20;;;;;;4899928;29;20103;-29
2022/10/29 01:32:43;;;;;;;8.95;3.47;;;14.90;87.20;;;;;;4899820;29;20036;-28
2022/10/29 01:35:17;;;;;;;10.52;3.08;;;14.90;87.30;;;;;;4900067;29;20017;-31
2022/10/29 01:38:07;;;;;;;9.07;3.45;;;14.90;87.40;;;;;;4900013;29;20032;-29
2022/10/29 01:41:28;;;;;;;8.85;3.42;;;14.80;87.40;;;;;;4899723;29;20025;-34
2022/10/29 01:44:12;;;;;;;8.05;3.60;;;14.80;87.30;;;;;;4859940;29;20041;-29
2022/10/29 01:46:41;;;;;;;12.13;3.50;;;14.80;87.30;;;;;;4896630;29;20089;-29
2022/10/29 01:49:12;;;;;;;7.57;3.38;;;14.70;87.30;;;;;;4899696;29;20130;-27
2022/10/29 01:51:39;;;;;;;11.18;3.72;;;14.70;87.40;;;;;;4899459;29;20039;-29
2022/10/29 01:54:08;;;;;;;7.90;3.60;;;14.70;87.40;;;;;;4899695;29;20052;-27
2022/10/29 01:56:33;;;;;;;9.95;4.47;;;14.70;87.40;;;;;;4899661;29;20032;-30
2022/10/29 01:59:01;;;;;;;9.15;4.03;;;14.70;87.40;;;;;;4899364;29;20024;-30
2022/10/29 02:01:35;;;;;;;11.00;3.95;;;14.70;87.40;;;;;;4899498;29;20056;-31
2022/10/29 02:04:34;;;;;;;9.82;4.40;;;14.60;87.40;;;;;;4899564;29;20033;-29
2022/10/29 02:07:36;;;;;;;9.15;3.55;;;14.60;87.40;;;;;;4899422;29;20100;-31
2022/10/29 02:10:26;;;;;;;8.23;3.50;;;14.60;87.40;;;;;;4859576;29;20362;-29
2022/10/29 02:12:53;;;;;;;9.43;3.67;;;14.50;87.40;;;;;;4897828;29;20040;-29
2022/10/29 02:15:36;;;;;;;8.63;4.00;;;14.60;87.50;;;;;;4899284;29;20035;-27
2022/10/29 02:18:05;;;;;;;11.60;4.27;;;14.50;87.40;;;;;;4899231;29;20067;-28
2022/10/29 02:20:31;;;;;;;12.13;4.25;;;14.50;87.50;;;;;;4898950;29;20088;-27
2022/10/29 02:22:56;;;;;;;8.75;4.18;;;14.50;87.50;;;;;;4898955;29;20362;-31
2022/10/29 02:25:22;;;;;;;8.48;4.38;;;14.50;87.50;;;;;;4898859;29;20099;-28
2022/10/29 02:27:47;;;;;;;14.63;4.85;;;14.50;87.40;;;;;;4898935;29;20074;-28
2022/10/29 02:30:14;;;;;;;10.35;4.50;;;14.50;87.40;;;;;;4898947;29;20028;-29
2022/10/29 02:32:39;;;;;;;9.95;4.70;;;14.50;87.50;;;;;;4898900;29;20040;-29
2022/10/29 02:35:05;;;;;;;10.18;4.55;;;14.50;87.40;;;;;;4881879;29;20474;-34
2022/10/29 02:37:31;;;;;;;10.75;4.43;;;14.50;87.50;;;;;;4898750;29;20495;-28
2022/10/29 02:39:56;;;;;;;14.35;4.68;;;14.50;87.50;;;;;;4898930;29;20020;-28
2022/10/29 02:42:22;;;;;;;9.48;4.30;;;14.50;87.50;;;;;;4898690;29;20365;-30
2022/10/29 02:44:48;;;;;;;13.68;4.75;;;14.50;87.50;;;;;;4898851;29;20085;-30
2022/10/29 02:47:14;;;;;;;21.05;4.93;;;14.60;87.50;;;;;;4898687;29;20039;-32
2022/10/29 02:49:39;;;;;;;17.83;5.25;;;14.60;87.40;;;;;;4898567;29;20048;-27
2022/10/29 02:52:05;;;;;;;23.65;6.30;;;14.60;87.40;;;;;;4898473;29;20395;-28
2022/10/29 02:54:31;;;;;;;25.88;6.32;;;14.60;87.50;;;;;;4898553;29;20025;-28
2022/10/29 02:56:56;;;;;;;20.58;6.10;;;14.60;87.50;;;;;;4898559;29;20084;-30
2022/10/29 02:59:22;;;;;;;25.60;6.78;;;14.60;87.60;;;;;;4898217;29;20051;-32
2022/10/29 03:01:47;;;;;;;19.48;6.93;;;14.60;87.50;;;;;;4898407;29;20036;-29
2022/10/29 03:04:13;;;;;;;20.10;6.25;;;14.60;87.60;;;;;;4898459;29;20495;-31
2022/10/29 03:06:39;;;;;;;20.67;6.63;;;14.60;87.60;;;;;;4897903;29;20060;-28
2022/10/29 03:09:05;;;;;;;24.33;6.78;;;14.60;87.60;;;;;;4898207;29;20043;-29
2022/10/29 03:11:30;;;;;;;18.58;6.30;;;14.60;87.70;;;;;;4898011;29;20516;-35
2022/10/29 03:13:56;;;;;;;23.30;7.45;;;14.60;87.70;;;;;;4898000;29;20045;-29
2022/10/29 03:16:22;;;;;;;24.75;7.13;;;14.60;87.70;;;;;;4898161;29;20028;-29
2022/10/29 03:18:47;;;;;;;16.48;6.45;;;14.60;87.70;;;;;;4898191;29;20107;-30
2022/10/29 03:21:13;;;;;;;16.90;6.95;;;14.60;87.80;;;;;;4897972;29;20035;-30
2022/10/29 03:23:38;;;;;;;19.42;6.47;;;14.60;87.80;;;;;;4881084;29;20111;-30
2022/10/29 03:26:04;;;;;;;20.33;6.55;;;14.60;87.80;;;;;;4897906;29;20033;-28
2022/10/29 03:28:30;;;;;;;19.13;6.70;;;14.50;87.80;;;;;;4897960;29;20036;-29
2022/10/29 03:30:59;;;;;;;15.38;6.15;;;14.60;87.80;;;;;;4897921;29;20464;-32
2022/10/29 03:33:25;;;;;;;18.42;6.25;;;14.60;87.80;;;;;;4897970;29;20044;-29
2022/10/29 03:36:04;;;;;;;15.85;6.18;;;14.60;87.90;;;;;;4897899;29;20032;-34
2022/10/29 03:38:30;;;;;;;12.30;6.10;;;14.50;87.80;;;;;;4898130;29;20043;-30
2022/10/29 03:40:56;;;;;;;16.27;6.47;;;14.50;87.80;;;;;;4897819;29;20032;-33
2022/10/29 03:43:22;;;;;;;13.50;6.03;;;14.50;87.90;;;;;;4898032;29;20032;-38
2022/10/29 03:45:52;;;;;;;12.18;5.60;;;14.50;87.90;;;;;;4897718;29;20037;-29
2022/10/29 03:48:18;;;;;;;12.65;5.82;;;14.60;88.00;;;;;;4880831;29;20032;-28
2022/10/29 03:50:44;;;;;;;14.85;6.10;;;14.60;87.90;;;;;;4897817;29;20350;-29
2022/10/29 03:53:10;;;;;;;17.20;6.47;;;14.60;88.00;;;;;;4897488;29;20442;-30
2022/10/29 03:55:35;;;;;;;12.88;6.80;;;14.60;87.90;;;;;;4897470;29;20052;-29
2022/10/29 03:58:01;;;;;;;17.75;7.00;;;14.60;88.00;;;;;;4897849;29;20533;-29
2022/10/29 04:00:27;;;;;;;17.48;7.00;;;14.60;88.00;;;;;;4880351;29;20509;-30
2022/10/29 04:02:52;;;;;;;15.85;6.88;;;14.70;88.00;;;;;;4897525;29;20552;-29
2022/10/29 04:05:18;;;;;;;18.90;7.57;;;14.60;88.00;;;;;;4897199;29;20032;-35
2022/10/29 04:07:43;;;;;;;26.92;7.15;;;14.70;88.10;;;;;;4897206;29;20057;-32
2022/10/29 04:10:09;;;;;;;19.33;7.10;;;14.70;88.10;;;;;;4896916;29;20043;-31
2022/10/29 04:12:35;;;;;;;16.10;7.22;;;14.70;88.10;;;;;;4897269;29;20056;-30
2022/10/29 04:15:00;;;;;;;19.15;7.63;;;14.70;88.00;;;;;;4897142;29;20038;-28
2022/10/29 04:17:26;;;;;;;21.25;8.35;;;14.80;88.10;;;;;;4896745;29;20056;-28
2022/10/29 04:19:52;;;;;;;16.27;7.47;;;14.80;88.70;;;;;;4896752;29;20116;-29
2022/10/29 04:22:17;;;;;;;18.83;7.55;;;14.80;88.70;;;;;;4897084;29;20092;-30
2022/10/29 04:24:43;;;;;;;15.32;7.32;;;14.80;88.10;;;;;;4897035;29;20033;-31
2022/10/29 04:27:08;;;;;;;15.82;6.93;;;14.80;88.10;;;;;;4897380;29;20035;-29
2022/10/29 04:29:34;;;;;;;22.42;7.45;;;14.80;88.10;;;;;;4897325;29;20071;-29
2022/10/29 04:31:59;;;;;;;16.85;7.45;;;14.80;88.20;;;;;;4897133;29;20453;-29
2022/10/29 04:34:25;;;;;;;18.60;8.02;;;14.80;88.20;;;;;;4896789;29;20084;-31
2022/10/29 04:36:51;;;;;;;17.25;7.15;;;14.80;88.20;;;;;;4897135;29;20028;-29
2022/10/29 04:39:17;;;;;;;13.88;6.95;;;14.70;88.20;;;;;;4896963;29;20040;-33
2022/10/29 04:41:42;;;;;;;15.40;7.15;;;14.70;88.20;;;;;;4896891;29;20033;-32
2022/10/29 04:44:08;;;;;;;10.63;6.13;;;14.70;88.30;;;;;;4897211;29;20028;-28
2022/10/29 04:46:33;;;;;;;14.25;7.00;;;14.60;88.40;;;;;;4897116;29;20440;-33
2022/10/29 04:48:59;;;;;;;13.27;6.28;;;14.60;88.50;;;;;;4897117;29;20032;-29
2022/10/29 04:51:26;;;;;;;12.25;6.65;;;14.60;88.60;;;;;;4896786;29;20036;-31
2022/10/29 04:53:51;;;;;;;9.27;6.25;;;14.50;88.70;;;;;;4879820;29;20040;-31
2022/10/29 04:56:17;;;;;;;10.63;6.47;;;14.50;88.70;;;;;;4896856;29;20029;-29
2022/10/29 04:58:43;;;;;;;10.60;6.75;;;14.50;88.80;;;;;;4896910;29;20017;-34
2022/10/29 05:01:09;;;;;;;11.10;6.65;;;14.50;88.90;;;;;;4896656;29;20052;-29
2022/10/29 05:03:34;;;;;;;11.60;7.05;;;14.50;89.00;;;;;;4897030;29;20032;-30
2022/10/29 05:06:04;;;;;;;8.57;6.50;;;14.50;88.90;;;;;;4896725;29;20044;-32
2022/10/29 05:08:30;;;;;;;9.45;6.60;;;14.50;89.00;;;;;;4897088;29;20469;-30
2022/10/29 05:10:56;;;;;;;10.80;6.60;;;14.50;89.00;;;;;;4896866;29;20094;-29
2022/10/29 05:13:21;;;;;;;9.38;6.28;;;14.40;89.00;;;;;;4896453;29;20037;-29
2022/10/29 05:15:51;;;;;;;10.90;6.60;;;14.40;89.00;;;;;;4896734;29;20491;-33
2022/10/29 05:18:17;;;;;;;13.60;6.97;;;14.50;89.00;;;;;;4896992;29;20452;-28
2022/10/29 05:20:42;;;;;;;11.93;7.65;;;14.50;89.00;;;;;;4880288;29;20465;-29
2022/10/29 05:23:10;;;;;;;10.25;6.85;;;14.50;88.90;;;;;;4896724;29;20092;-30
2022/10/29 05:25:39;;;;;;;11.55;7.07;;;14.60;88.80;;;;;;4896719;29;20039;-28
2022/10/29 05:28:08;;;;;;;16.55;7.35;;;14.60;88.80;;;;;;4896647;29;20151;-28
2022/10/29 05:30:33;;;;;;;15.32;6.95;;;14.60;88.90;;;;;;4898853;29;20366;-29
2022/10/29 05:32:59;;;;;;;11.10;7.00;;;14.50;88.80;;;;;;4900271;29;20075;-25
2022/10/29 05:35:25;;;;;;;10.27;6.97;;;14.60;88.90;;;;;;4900055;29;20085;-28
2022/10/29 05:37:52;;;;;;;10.13;6.80;;;14.60;88.80;;;;;;4900028;29;20045;-27
2022/10/29 05:40:17;;;;;;;12.23;7.40;;;14.60;88.80;;;;;;4900046;29;20031;-27
2022/10/29 05:42:43;;;;;;;10.30;6.82;;;14.70;88.80;;;;;;4900255;29;20028;-28
2022/10/29 05:45:09;;;;;;;13.35;7.13;;;14.70;88.80;;;;;;4899821;29;20033;-26
2022/10/29 05:47:34;;;;;;;13.15;7.00;;;14.70;89.40;;;;;;4899548;29;20036;-27
2022/10/29 05:50:00;;;;;;;9.65;7.03;;;14.80;88.90;;;;;;4899562;29;20025;-27
2022/10/29 05:52:26;;;;;;;11.68;7.30;;;14.80;88.80;;;;;;4899771;29;20190;-27
2022/10/29 05:54:51;;;;;;;16.67;10.68;;;14.80;88.70;;;;;;4899442;29;20077;-27
2022/10/29 05:57:17;;;;;;;12.45;8.18;;;14.80;88.70;;;;;;4899484;29;20139;-25
2022/10/29 05:59:42;;;;;;;13.40;7.82;;;14.80;88.70;;;;;;4899334;29;20044;-30
2022/10/29 06:02:09;;;;;;;10.57;7.47;;;14.80;88.70;;;;;;4899623;29;20033;-36
2022/10/29 06:04:34;;;;;;;13.40;8.02;;;14.80;88.80;;;;;;4899476;29;20024;-27
2022/10/29 06:07:00;;;;;;;13.88;8.05;;;14.80;88.80;;;;;;4899530;29;20028;-27
2022/10/29 06:09:26;;;;;;;14.13;7.90;;;14.80;88.80;;;;;;4899497;29;20220;-27
2022/10/29 06:11:53;;;;;;;13.68;8.18;;;14.80;88.80;;;;;;4899246;29;20072;-30
2022/10/29 06:14:18;;;;;;;13.77;7.78;;;14.80;88.80;;;;;;4899174;29;20028;-27
2022/10/29 06:16:44;;;;;;;12.98;8.48;;;14.90;88.90;;;;;;4899204;29;20032;-26
2022/10/29 06:19:10;;;;;;;12.27;7.78;;;14.90;88.90;;;;;;4899142;29;20563;-27
2022/10/29 06:21:35;;;;;;;13.82;8.20;;;14.90;88.90;;;;;;4899165;29;20032;-26
2022/10/29 06:24:01;;;;;;;13.43;8.65;;;14.90;88.90;;;;;;4899033;29;20036;-28
2022/10/29 06:26:27;;;;;;;14.90;8.77;;;14.90;88.80;;;;;;4899107;29;20028;-26
2022/10/29 06:28:52;;;;;;;13.18;7.88;;;14.90;88.80;;;;;;4899124;29;20414;-31
2022/10/29 06:31:18;;;;;;;11.25;8.23;;;15.00;88.90;;;;;;4899051;29;20088;-26
2022/10/29 06:33:43;;;;;;;13.00;8.07;;;15.00;88.90;;;;;;4899037;29;20060;-27
2022/10/29 06:36:09;;;;;;;13.25;7.80;;;15.00;88.90;;;;;;4898897;29;20028;-28
2022/10/29 06:38:34;;;;;;;13.73;8.07;;;15.00;88.90;;;;;;4898796;29;20103;-27
2022/10/29 06:41:00;;;;;;;12.05;8.25;;;15.00;89.00;;;;;;4898238;29;20430;-30
2022/10/29 06:43:26;;;;;;;14.25;7.90;;;15.10;89.00;;;;;;4898635;29;20405;-29
2022/10/29 06:45:51;;;;;;;12.18;8.10;;;15.10;89.00;;;;;;4898764;29;20397;-26
2022/10/29 06:48:17;;;;;;;12.05;8.73;;;15.10;89.00;;;;;;4898799;29;20024;-30
2022/10/29 06:50:43;;;;;;;16.88;7.95;;;15.10;89.00;;;;;;4898780;29;20035;-25
2022/10/29 06:53:11;;;;;;;15.88;8.60;;;15.10;89.00;;;;;;4898570;29;20033;-26
2022/10/29 06:55:37;;;;;;;16.10;9.40;;;15.20;89.10;;;;;;4898700;29;20024;-27
2022/10/29 06:58:05;;;;;;;16.70;9.13;;;15.20;89.10;;;;;;4898723;29;20468;-31
2022/10/29 07:00:32;;;;;;;11.88;8.93;;;15.20;89.10;;;;;;4898330;29;20048;-30
2022/10/29 07:02:58;;;;;;;14.98;8.68;;;15.20;89.10;;;;;;4881351;29;20507;-26
2022/10/29 07:05:25;;;;;;;15.68;8.60;;;15.30;89.20;;;;;;4898341;29;20560;-28
2022/10/29 07:07:58;;;;;;;14.63;8.63;;;15.30;89.20;;;;;;4898351;29;20060;-28
2022/10/29 07:10:24;;;;;;;13.65;9.18;;;15.30;89.20;;;;;;4898293;29;20523;-26
2022/10/29 07:12:50;;;;;;;14.00;8.95;;;15.30;89.10;;;;;;4898103;29;20477;-26
2022/10/29 07:15:16;;;;;;;15.90;9.23;;;15.40;89.20;;;;;;4881034;29;20055;-29
2022/10/29 07:17:41;;;;;;;14.48;8.43;;;15.40;89.20;;;;;;4898311;29;20511;-28
2022/10/29 07:20:08;;;;;;;15.60;8.70;;;15.50;89.30;;;;;;4898111;29;20027;-34
2022/10/29 07:22:34;;;;;;;14.18;8.75;;;15.50;89.30;;;;;;4898086;29;20036;-34
2022/10/29 07:25:00;;;;;;;15.35;9.13;;;15.50;89.10;;;;;;4898167;29;20028;-31
2022/10/29 07:27:27;;;;;;;13.07;8.23;;;15.60;89.10;;;;;;4881074;29;20353;-29
2022/10/29 07:29:53;;;;;;;15.55;8.82;;;15.60;89.70;;;;;;4898354;29;20025;-27
2022/10/29 07:32:18;;;;;;;12.95;9.23;;;15.70;89.10;;;;;;4897823;29;20040;-28
2022/10/29 07:34:44;;;;;;;17.48;9.00;;;15.70;89.00;;;;;;4897979;29;20500;-27
2022/10/29 07:37:09;;;;;;;12.57;8.88;;;15.80;89.00;;;;;;4897789;29;20033;-30
2022/10/29 07:39:35;;;;;;;16.30;9.10;;;15.80;88.90;;;;;;4897807;29;20457;-27
2022/10/29 07:42:00;;;;;;;11.82;9.00;;;15.90;88.90;;;;;;4897785;29;20029;-26
2022/10/29 07:44:26;;;;;;;14.82;8.95;;;16.00;88.90;;;;;;4897619;29;20037;-28
2022/10/29 07:46:52;;;;;;;13.13;9.10;;;16.00;88.80;;;;;;4897734;29;20029;-30
2022/10/29 07:49:17;;;;;;;11.90;8.80;;;16.10;88.70;;;;;;4897556;29;20039;-27
2022/10/29 07:51:43;;;;;;;16.75;9.63;;;16.10;88.60;;;;;;4897490;29;20027;-26
2022/10/29 07:54:08;;;;;;;17.23;9.45;;;16.20;89.20;;;;;;4897293;29;20103;-26
2022/10/29 07:56:34;;;;;;;17.70;9.27;;;16.20;88.50;;;;;;4897296;29;20113;-29
2022/10/29 07:58:59;;;;;;;17.20;9.15;;;16.20;88.60;;;;;;4897332;29;20361;-27
2022/10/29 08:01:25;;;;;;;16.48;9.07;;;16.20;88.60;;;;;;4897155;29;20668;-27
2022/10/29 08:03:50;;;;;;;16.75;9.48;;;16.20;88.60;;;;;;4897397;29;20103;-28
2022/10/29 08:06:16;;;;;;;18.23;9.77;;;16.20;88.70;;;;;;4897284;29;20040;-31
2022/10/29 08:08:42;;;;;;;14.07;9.02;;;16.20;88.70;;;;;;4897276;29;20389;-30
2022/10/29 08:11:07;;;;;;;19.10;9.77;;;16.30;88.70;;;;;;4897406;29;20100;-28
2022/10/29 08:13:33;;;;;;;16.80;9.02;;;16.30;88.70;;;;;;4897258;29;20036;-29
2022/10/29 08:15:59;;;;;;;15.07;9.63;;;16.30;88.80;;;;;;4897188;29;20155;-32
2022/10/29 08:18:25;;;;;;;15.45;9.48;;;16.30;88.70;;;;;;4897181;29;20029;-30
2022/10/29 08:20:50;;;;;;;14.20;9.40;;;16.40;88.60;;;;;;4897144;29;20056;-28
2022/10/29 08:23:16;;;;;;;13.95;9.07;;;16.40;88.60;;;;;;4897178;29;20065;-30
2022/10/29 08:25:42;;;;;;;14.15;9.13;;;16.60;88.60;;;;;;4897134;29;20111;-31
2022/10/29 08:28:10;;;;;;;14.68;9.15;;;16.70;88.40;;;;;;4897058;29;20039;-28
2022/10/29 08:30:36;;;;;;;16.90;8.60;;;16.70;88.20;;;;;;4897422;29;20444;-29
2022/10/29 08:33:01;;;;;;;15.15;8.85;;;16.80;88.20;;;;;;4897249;29;20025;-31
2022/10/29 08:35:27;;;;;;;14.52;8.77;;;16.80;88.00;;;;;;4880117;29;20036;-29
2022/10/29 08:37:53;;;;;;;14.30;9.07;;;16.90;88.00;;;;;;4897032;29;20029;-29
2022/10/29 08:40:53;;;;;;;12.57;8.32;;;16.90;88.00;;;;;;4897140;29;20056;-30
2022/10/29 08:43:54;;;;;;;12.50;8.20;;;17.00;88.60;;;;;;4896821;29;20043;-26
2022/10/29 08:46:42;;;;;;;15.55;8.20;;;17.00;87.80;;;;;;4878299;29;20033;-28
2022/10/29 08:49:18;;;;;;;12.18;7.50;;;17.10;87.70;;;;;;4897149;29;20168;-26
2022/10/29 08:51:51;;;;;;;15.07;7.95;;;17.20;87.50;;;;;;4897296;29;20036;-26
2022/10/29 08:54:17;;;;;;;;;;;17.20;87.50;;;;;;4897300;29;20033;-28
2022/10/29 08:56:56;;;;;;;12.70;8.43;;;17.20;87.40;;;;;;4896966;29;19908;-29
2022/10/29 08:59:24;;;;;;;12.65;8.65;;;17.20;87.40;;;;;;4896833;29;20025;-34
2022/10/29 09:01:53;;;;;;;13.25;8.95;;;17.20;87.30;;;;;;4896921;29;20484;-32
2022/10/29 09:04:35;;;;;;;15.40;8.98;;;17.30;87.40;;;;;;4897076;29;20037;-31
2022/10/29 09:07:06;;;;;;;11.55;8.02;;;17.30;87.50;;;;;;4900578;29;20024;-45
2022/10/29 09:09:45;;;;;;;12.48;8.48;;;17.30;87.30;;;;;;4900594;29;20037;-43
2022/10/29 09:12:51;;;;;;;11.98;8.23;;;17.40;87.30;;;;;;4900537;29;20031;-43
2022/10/29 09:15:53;;;;;;;13.50;8.93;;;17.40;87.30;;;;;;4900344;29;20021;-40
2022/10/29 09:18:44;;;;;;;10.93;7.75;;;17.50;87.30;;;;;;4900348;29;20029;-43
2022/10/29 09:21:32;;;;;;;9.57;7.70;;;17.60;87.10;;;;;;4900268;29;20033;-43
2022/10/29 09:24:01;;;;;;;12.27;7.22;;;17.70;86.90;;;;;;4900142;29;20080;-42
2022/10/29 09:26:47;;;;;;;12.73;8.35;;;17.70;86.70;;;;;;4899956;29;20545;-29
2022/10/29 09:29:25;;;;;;;11.43;7.80;;;17.80;86.70;;;;;;4900019;29;20108;-29
2022/10/29 09:32:01;;;;;;;13.48;7.78;;;17.90;86.50;;;;;;4899871;29;20033;-26
2022/10/29 09:34:36;;;;;;;12.00;8.00;;;17.90;86.40;;;;;;4899949;29;20033;-27
2022/10/29 09:37:11;;;;;;;13.95;7.72;;;18.00;86.30;;;;;;4899876;29;20506;-26
2022/10/29 09:39:40;;;;;;;12.45;8.02;;;18.10;86.30;;;;;;4899901;29;20107;-26
2022/10/29 09:42:12;;;;;;;12.27;7.40;;;18.10;86.20;;;;;;4899665;29;20111;-26
2022/10/29 09:44:52;;;;;;;12.57;7.53;;;18.10;86.10;;;;;;4899723;29;20029;-31
2022/10/29 09:47:27;;;;;;;10.88;7.22;;;18.20;86.00;;;;;;4882681;29;20028;-30
2022/10/29 09:50:01;;;;;;;11.52;7.82;;;18.20;86.00;;;;;;4899958;29;20052;-28
2022/10/29 09:52:31;;;;;;;12.05;6.53;;;18.20;85.90;;;;;;4899579;29;20519;-28
2022/10/29 09:54:58;;;;;;;13.82;7.10;;;18.20;85.80;;;;;;4899724;29;20033;-32
2022/10/29 09:57:29;;;;;;;12.35;7.53;;;18.30;85.80;;;;;;4899721;29;20458;-27
2022/10/29 10:00:00;;;;;;;13.43;7.57;;;18.30;85.70;;;;;;4899099;29;20037;-33
2022/10/29 10:02:33;;;;;;;12.93;7.68;;;18.30;85.60;;;;;;4899098;29;20044;-28
2022/10/29 10:05:26;;;;;;;12.32;7.40;;;18.40;85.60;;;;;;4899060;29;20029;-30
2022/10/29 10:08:13;;;;;;;11.70;6.90;;;18.40;85.50;;;;;;4894023;29;20121;-30
2022/10/29 10:10:51;;;;;;;13.13;7.25;;;18.40;85.40;;;;;;4899128;29;20045;-32
2022/10/29 10:13:35;;;;;;;13.95;7.55;;;18.40;85.40;;;;;;4899265;29;20044;-37
2022/10/29 10:16:04;;;;;;;10.40;7.10;;;18.40;85.30;;;;;;4898551;29;20477;-30
2022/10/29 10:18:39;;;;;;;13.23;7.10;;;18.40;85.30;;;;;;4899284;29;20044;-33
2022/10/29 10:21:31;;;;;;;13.30;7.32;;;18.40;85.30;;;;;;4899174;29;20357;-31
2022/10/29 10:23:58;;;;;;;10.57;7.25;;;18.50;85.30;;;;;;4899284;29;20032;-27
2022/10/29 10:26:38;;;;;;;12.15;7.65;;;18.40;85.20;;;;;;4899147;29;20020;-33
2022/10/29 10:29:21;;;;;;;10.32;7.35;;;18.50;85.20;;;;;;4898990;29;20037;-31
2022/10/29 10:32:07;;;;;;;11.25;7.38;;;18.50;85.20;;;;;;4898797;29;20025;-33
2022/10/29 10:34:33;;;;;;;10.32;7.18;;;18.50;85.20;;;;;;4891998;29;20184;-31
2022/10/29 10:37:06;;;;;;;13.10;7.18;;;18.50;85.10;;;;;;4899110;29;20480;-30
2022/10/29 10:39:38;;;;;;;9.88;6.57;;;18.60;85.00;;;;;;4898861;29;20029;-28
2022/10/29 10:42:20;;;;;;;11.73;7.00;;;18.60;85.00;;;;;;4898848;29;20156;-31
2022/10/29 10:44:51;;;;;;;10.60;6.72;;;18.70;84.80;;;;;;4899086;29;20024;-32
2022/10/29 10:47:23;;;;;;;13.40;6.60;;;18.80;84.70;;;;;;4898955;29;20028;-40
2022/10/29 10:49:48;;;;;;;12.13;6.35;;;18.90;84.50;;;;;;4898630;29;20027;-42
2022/10/29 10:52:18;;;;;;;11.85;6.40;;;19.00;84.40;;;;;;4898433;29;20037;-41
2022/10/29 10:54:59;;;;;;;10.82;6.68;;;19.20;84.20;;;;;;4898564;29;20024;-36
2022/10/29 10:57:31;;;;;;;9.63;5.63;;;19.30;83.90;;;;;;4898642;29;20032;-38
2022/10/29 11:00:13;;;;;;;11.63;5.60;;;19.40;83.60;;;;;;4898432;29;20572;-41
2022/10/29 11:02:44;;;;;;;9.52;5.85;;;19.60;83.30;;;;;;4898381;29;20028;-39
2022/10/29 11:05:16;;;;;;;12.10;5.72;;;19.70;82.90;;;;;;4898354;29;20380;-39
2022/10/29 11:07:47;;;;;;;8.18;5.25;;;19.70;82.60;;;;;;4898392;29;20028;-40
2022/10/29 11:10:16;;;;;;;8.98;5.40;;;19.80;82.40;;;;;;4881827;29;20036;-42
2022/10/29 11:12:53;;;;;;;13.73;6.05;;;19.80;82.30;;;;;;4898253;29;20017;-33
2022/10/29 11:15:45;;;;;;;11.45;5.60;;;19.90;82.20;;;;;;4898566;29;20377;-33
2022/10/29 11:18:21;;;;;;;7.07;4.70;;;19.90;82.00;;;;;;4898373;29;20020;-40
2022/10/29 11:21:29;;;;;;;9.38;5.20;;;20.00;82.50;;;;;;4898283;29;20076;-35
2022/10/29 11:23:58;;;;;;;6.35;4.82;;;20.00;81.50;;;;;;4898518;29;20052;-33
2022/10/29 11:26:50;;;;;;;7.88;4.80;;;20.00;81.40;;;;;;4898176;29;20025;-34
2022/10/29 11:29:40;;;;;;;8.02;4.88;;;20.10;81.30;;;;;;4897880;29;20028;-33
2022/10/29 11:32:09;;;;;;;6.97;4.30;;;20.20;81.30;;;;;;4898054;29;20025;-32
2022/10/29 11:34:42;;;;;;;6.55;4.53;;;20.20;81.10;;;;;;4898353;29;20061;-33
2022/10/29 11:37:28;;;;;;;7.43;4.53;;;20.30;81.00;;;;;;4898224;29;20056;-34
2022/10/29 11:40:17;;;;;;;6.10;4.35;;;20.30;80.80;;;;;;4898182;29;20553;-33
2022/10/29 11:42:43;;;;;;;8.82;4.28;;;20.40;80.70;;;;;;4880941;29;20025;-28
2022/10/29 11:45:20;;;;;;;7.05;4.45;;;20.50;80.40;;;;;;4897766;29;20033;-29
2022/10/29 11:47:59;;;;;;;9.55;5.25;;;20.50;80.20;;;;;;4897674;29;20032;-31
2022/10/29 11:50:32;;;;;;;9.00;4.68;;;20.50;80.00;;;;;;4897667;29;20525;-30
2022/10/29 11:53:23;;;;;;;6.97;4.38;;;20.50;80.00;;;;;;4897366;29;20544;-28
2022/10/29 11:56:12;;;;;;;9.93;4.45;;;20.50;80.00;;;;;;4897733;29;20092;-43
2022/10/29 11:58:46;;;;;;;7.20;4.78;;;20.60;79.70;;;;;;4897168;29;20021;-42
2022/10/29 12:01:43;;;;;;;6.65;4.32;;;20.70;79.60;;;;;;4897261;29;20049;-42
2022/10/29 12:04:22;;;;;;;7.43;4.38;;;20.80;79.40;;;;;;4897193;29;20028;-43
2022/10/29 12:07:26;;;;;;;8.48;3.85;;;20.90;79.80;;;;;;4897331;29;20092;-40
2022/10/29 12:10:08;;;;;;;8.13;4.27;;;20.80;79.00;;;;;;4897162;29;20071;-42
2022/10/29 12:12:48;;;;;;;8.88;4.10;;;20.80;78.90;;;;;;4897181;29;20033;-43
2022/10/29 12:15:25;;;;;;;8.25;3.80;;;21.00;78.80;;;;;;4897560;29;20484;-42
2022/10/29 12:18:11;;;;;;;6.40;3.40;;;21.00;77.90;;;;;;4897317;29;20059;-41
2022/10/29 12:20:49;;;;;;;4.03;2.70;;;21.10;77.50;;;;;;4897241;29;20039;-40
2022/10/29 12:23:24;;;;;;;6.45;3.38;;;21.10;77.40;;;;;;4897273;29;20369;-41
2022/10/29 12:26:25;;;;;;;5.68;3.90;;;21.20;77.20;;;;;;4897108;29;20033;-40
2022/10/29 12:28:53;;;;;;;6.90;3.30;;;21.20;77.20;;;;;;4894976;29;20052;-40
2022/10/29 12:31:57;;;;;;;7.45;3.72;;;21.20;77.40;;;;;;4897387;29;20119;-40
2022/10/29 12:34:44;;;;;;;7.10;3.42;;;21.20;77.40;;;;;;4896951;29;20092;-41
2022/10/29 12:37:33;;;;;;;5.70;3.00;;;21.10;77.40;;;;;;4896816;29;20029;-39
2022/10/29 12:40:11;;;;;;;4.78;3.00;;;21.20;78.10;;;;;;4890673;29;20043;-43
2022/10/29 12:42:38;;;;;;;8.70;3.53;;;21.20;77.20;;;;;;4896897;29;20485;-41
2022/10/29 12:45:22;;;;;;;8.05;3.20;;;21.20;77.00;;;;;;4896989;29;20370;-39
2022/10/29 12:48:03;;;;;;;7.57;3.65;;;21.30;76.90;;;;;;4879925;29;20364;-41
2022/10/29 12:50:57;;;;;;;8.93;4.00;;;21.40;76.50;;;;;;4897033;29;20039;-38
2022/10/29 12:53:41;;;;;;;6.10;3.15;;;21.60;76.30;;;;;;4896935;29;20035;-42
2022/10/29 12:56:09;;;;;;;5.63;3.38;;;21.70;75.70;;;;;;4896946;29;20021;-42
2022/10/29 12:59:26;;;;;;;7.72;3.10;;;21.80;75.60;;;;;;4896931;29;20056;-40
2022/10/29 13:01:52;;;;;;;5.80;2.72;;;21.90;75.30;;;;;;4880561;29;20053;-43
2022/10/29 13:04:32;;;;;;;6.70;3.42;;;21.90;75.00;;;;;;4896946;29;20028;-37